Arecibo, PR PRSN current weather conditions

sailwx.info

Wind from 047 at 9 knots gusting 16

Water temperature 28.9° C

Last reported at 2019-Dec-11 14:42 UTC.
Time now 2019-Dec-11 16:09 UTC

Location: N 18°29' W 066°42'.
View on Google Maps.

See reports from other nearby stations

  
Tides and Currents Weather Stations Pressure Air Temp Water Temp Dewpoint Dewpoint Depression Visibility Wind Speed Wind Dir Waves Ship Positions
date/time (UTC)wind fromknots sea level pressurealtimeterstation pressurevisibilityair tempwater tempwave heightnotes
2019-Dec-11 14:42 047 9 gusting 16 28.9
2019-Dec-11 14:36 051 8 gusting 15 28.9
2019-Dec-11 14:30 053 11 gusting 18 28.9
2019-Dec-11 14:24 050 9 gusting 15 28.3
2019-Dec-11 14:18 048 8 gusting 14 28.3
2019-Dec-11 14:12 057 7 gusting 14 28.3
2019-Dec-11 14:06 055 9 gusting 16 28.3
2019-Dec-11 14:00 061 8 gusting 19 28.3
2019-Dec-11 13:54 065 3 gusting 8 28.3
2019-Dec-11 13:48 054 7 gusting 15 28.3
2019-Dec-11 13:42 054 4 gusting 10 28.3
2019-Dec-11 13:36 066 6 gusting 9 28.3
2019-Dec-11 13:30 053 6 gusting 11 28.3
2019-Dec-11 13:18 067 4 gusting 8 28.3
2019-Dec-11 13:12 066 6 gusting 9 28.3
2019-Dec-11 13:06 071 5 gusting 8 28.3
2019-Dec-11 13:00 068 6 gusting 8 28.3
2019-Dec-11 12:54 075 6 gusting 7 28.3
2019-Dec-11 12:48 071 5 gusting 7 28.3
2019-Dec-11 12:42 075 3 gusting 6 28.3
2019-Dec-11 12:36 074 4 gusting 6 28.3
2019-Dec-11 12:30 075 5 gusting 7 28.3
2019-Dec-11 12:24 080 6 gusting 9 28.3
2019-Dec-11 12:18 079 6 gusting 8 28.3
2019-Dec-11 12:12 089 5 gusting 7 28.3
2019-Dec-11 12:06 098 3 gusting 4 28.3
2019-Dec-11 12:00 099 4 gusting 6 28.3
2019-Dec-11 11:54 098 3 gusting 5 28.3
2019-Dec-11 11:48 098 4 gusting 6 28.3
2019-Dec-11 11:42 096 4 gusting 6 28.3
2019-Dec-11 11:36 095 3 gusting 5 28.3
2019-Dec-11 11:30 094 5 gusting 7 28.3
2019-Dec-11 11:24 087 7 gusting 9 28.3
2019-Dec-11 11:18 080 5 gusting 6 28.3
2019-Dec-11 11:12 094 3 gusting 5 28.3
2019-Dec-11 11:06 086 5 gusting 8 28.3
2019-Dec-11 11:00 089 4 gusting 7 28.3
2019-Dec-11 10:54 090 4 gusting 5 28.3
2019-Dec-11 10:48 091 4 gusting 5 28.3
2019-Dec-11 10:42 102 3 gusting 4 28.3
2019-Dec-11 10:36 103 3 gusting 5 28.3
2019-Dec-11 10:30 096 4 gusting 5 28.3
2019-Dec-11 10:24 101 4 gusting 6 28.3
2019-Dec-11 10:18 086 28.3
2019-Dec-11 10:12 076 3 gusting 5 28.3
2019-Dec-11 10:06 072 4 gusting 6 28.3
2019-Dec-11 10:00 086 3 gusting 6 28.3
2019-Dec-11 09:54 088 4 gusting 6 28.3
2019-Dec-11 09:48 090 4 gusting 6 28.3
2019-Dec-11 09:42 094 4 gusting 6 28.3
2019-Dec-11 09:36 096 2 gusting 6 28.3
2019-Dec-11 09:30 094 4 gusting 5 28.3
2019-Dec-11 09:24 092 5 gusting 6 28.3
2019-Dec-11 09:18 081 3 gusting 5 28.3
2019-Dec-11 09:12 085 4 gusting 6 28.3
2019-Dec-11 09:06 105 4 gusting 6 28.3
2019-Dec-11 09:00 112 4 gusting 6 28.3
2019-Dec-11 08:54 113 3 gusting 4 28.3
2019-Dec-11 08:48 114 3 gusting 4 28.3
2019-Dec-11 08:42 114 4 gusting 5 28.3
2019-Dec-11 08:36 114 2 gusting 4 27.8
2019-Dec-11 08:30 114 3 gusting 4 28.3
2019-Dec-11 08:24 113 3 gusting 5 28.3
2019-Dec-11 08:18 112 4 gusting 5 27.8
2019-Dec-11 08:12 110 3 gusting 4 27.8
2019-Dec-11 08:06 114 3 gusting 4 27.8
2019-Dec-11 08:00 114 5 gusting 6 28.3
2019-Dec-11 07:54 113 3 gusting 5 28.3
2019-Dec-11 07:48 099 3 gusting 5 27.8
2019-Dec-11 07:42 111 2 gusting 3 28.3
2019-Dec-11 07:36 114 3 gusting 4 28.3
2019-Dec-11 07:30 104 2 gusting 3 28.3
2019-Dec-11 07:24 114 2 gusting 3 28.3
2019-Dec-11 07:18 105 2 gusting 3 28.3
2019-Dec-11 07:12 114 3 gusting 4 27.8
2019-Dec-11 07:06 106 3 gusting 4 28.3
2019-Dec-11 07:00 089 1 gusting 3 28.3
2019-Dec-11 06:54 099 3 gusting 3 28.3
2019-Dec-11 06:48 106 2 gusting 4 28.3
2019-Dec-11 06:42 112 2 gusting 3 28.3
2019-Dec-11 06:36 107 3 gusting 4 28.3
2019-Dec-11 06:30 114 2 gusting 3 28.3
2019-Dec-11 06:24 106 2 gusting 4 28.3
2019-Dec-11 06:18 103 3 gusting 5 28.3
2019-Dec-11 06:12 092 4 gusting 7 28.3
2019-Dec-11 06:06 095 3 gusting 5 28.3
2019-Dec-11 06:00 080 0 gusting 3 28.3
2019-Dec-11 05:54 074 1 gusting 4 28.3
2019-Dec-11 05:48 069 1 gusting 6 28.3
2019-Dec-11 05:42 079 0 gusting 4 28.3
2019-Dec-11 05:36 090 5 gusting 6 28.3
2019-Dec-11 05:30 102 1 gusting 3 28.3
2019-Dec-11 05:24 079 4 gusting 5 28.3
2019-Dec-11 05:18 102 3 gusting 3 28.3
2019-Dec-11 05:12 098 28.3
2019-Dec-11 05:06 084 2 gusting 3 28.3
2019-Dec-11 05:00 086 3 gusting 4 28.3
2019-Dec-11 04:54 093 3 gusting 4 28.3
2019-Dec-11 04:48 098 3 gusting 5 28.3
2019-Dec-11 04:42 097 3 gusting 4 28.3
2019-Dec-11 04:36 077 3 gusting 5 28.3
2019-Dec-11 04:30 072 7 gusting 12 28.3
2019-Dec-11 04:24 086 5 gusting 7 28.3
2019-Dec-11 04:18 085 1 gusting 3 28.3
2019-Dec-11 04:12 085 28.3
2019-Dec-11 04:06 084 1 gusting 3 28.3
2019-Dec-11 04:00 084 0 gusting 3 28.3
2019-Dec-11 03:54 077 1 gusting 5 28.3
2019-Dec-11 03:48 058 3 gusting 5 28.3
2019-Dec-11 03:42 062 3 gusting 6 28.3
2019-Dec-11 03:36 066 3 gusting 7 28.3
2019-Dec-11 03:30 071 7 gusting 10 28.3
2019-Dec-11 03:24 071 11 gusting 16 28.3
2019-Dec-11 03:18 087 5 gusting 6 28.3
2019-Dec-11 03:12 100 3 gusting 6 28.3
2019-Dec-11 03:06 094 0 gusting 3 28.3
2019-Dec-11 03:00 104 3 gusting 5 28.3
2019-Dec-11 02:54 091 1 gusting 3 28.3
2019-Dec-11 02:48 080 4 gusting 6 28.3
2019-Dec-11 02:42 072 4 gusting 6 28.3
2019-Dec-11 02:36 100 2 gusting 3 28.3
2019-Dec-11 02:30 093 28.3
2019-Dec-11 02:24 106 28.3
2019-Dec-11 02:18 104 2 gusting 3 28.3
2019-Dec-11 02:12 116 3 gusting 4 28.3
2019-Dec-11 02:06 093 1 gusting 2 28.3
2019-Dec-11 02:00 098 28.3
2019-Dec-11 01:54 095 28.3
2019-Dec-11 01:42 105 28.3
2019-Dec-11 01:36 089 28.3
2019-Dec-11 01:30 084 1 gusting 3 28.3
2019-Dec-11 01:24 099 3 gusting 5 28.3
2019-Dec-11 01:18 109 4 gusting 6 28.3
2019-Dec-11 01:12 107 3 gusting 5 28.3
2019-Dec-11 01:06 115 2 gusting 4 28.3
2019-Dec-11 01:00 116 2 gusting 3 28.3
2019-Dec-11 00:54 102 2 gusting 3 28.3
2019-Dec-11 00:48 107 2 gusting 5 28.3
2019-Dec-11 00:42 109 2 gusting 3 28.3
2019-Dec-11 00:36 113 3 gusting 5 28.3
2019-Dec-11 00:30 104 4 gusting 5 28.3
2019-Dec-11 00:24 113 4 gusting 5 28.3
2019-Dec-11 00:18 093 6 gusting 7 28.3
2019-Dec-11 00:12 079 6 gusting 9 28.3
2019-Dec-11 00:06 070 6 gusting 8 28.3
2019-Dec-11 00:00 070 7 gusting 11 28.3
2019-Dec-10 23:42 082 5 gusting 6 28.3
2019-Dec-10 23:36 084 3 gusting 5 28.3
2019-Dec-10 23:30 071 4 gusting 6 28.3
2019-Dec-10 23:24 074 6 gusting 7 28.3
2019-Dec-10 23:18 069 8 gusting 10 28.3
2019-Dec-10 23:12 062 12 gusting 20 28.3
2019-Dec-10 23:06 076 5 gusting 8 28.3
2019-Dec-10 23:00 070 5 gusting 7 28.3
2019-Dec-10 22:54 072 5 gusting 7 28.3
2019-Dec-10 22:48 065 4 gusting 7 28.3
2019-Dec-10 22:42 073 8 gusting 13 28.3
2019-Dec-10 22:36 069 4 gusting 7 28.3
2019-Dec-10 22:30 074 5 gusting 8 28.3
2019-Dec-10 22:24 070 6 gusting 10 28.3
2019-Dec-10 22:18 063 4 gusting 7 28.3
2019-Dec-10 22:12 063 5 gusting 10 28.3
2019-Dec-10 22:06 069 5 gusting 10 28.3
2019-Dec-10 22:00 068 6 gusting 9 28.3
2019-Dec-10 21:54 066 6 gusting 12 28.3
2019-Dec-10 21:48 066 5 gusting 9 28.3
2019-Dec-10 21:42 061 4 gusting 11 28.3
2019-Dec-10 21:36 064 6 gusting 10 28.3
2019-Dec-10 21:30 067 6 gusting 13 28.3
2019-Dec-10 21:24 056 7 gusting 13 28.3
2019-Dec-10 21:18 065 6 gusting 11 28.3
2019-Dec-10 21:12 061 6 gusting 13 28.3
2019-Dec-10 21:06 059 8 gusting 17 28.3
2019-Dec-10 21:00 058 9 gusting 16 28.3
2019-Dec-10 20:54 060 7 gusting 14 28.3
2019-Dec-10 20:48 057 5 gusting 13 28.3
2019-Dec-10 20:42 057 9 gusting 19 28.9
2019-Dec-10 20:36 064 10 gusting 17 28.9
2019-Dec-10 20:30 053 11 gusting 20 28.9
2019-Dec-10 20:24 058 9 gusting 14 28.9
2019-Dec-10 20:18 058 10 gusting 17 28.9
2019-Dec-10 20:12 058 8 gusting 19 28.9
2019-Dec-10 20:06 059 11 gusting 19 28.9
2019-Dec-10 20:00 054 11 gusting 18 28.9
2019-Dec-10 19:54 053 10 gusting 16 28.9
2019-Dec-10 19:48 061 10 gusting 17 28.9
2019-Dec-10 19:42 051 11 gusting 20 28.9
2019-Dec-10 19:36 054 9 gusting 17 28.9
2019-Dec-10 19:30 054 12 gusting 17 28.9
2019-Dec-10 19:24 054 8 gusting 15 28.9
2019-Dec-10 19:18 046 8 gusting 14 28.9
2019-Dec-10 19:12 055 10 gusting 14 28.9
2019-Dec-10 19:06 053 6 gusting 14 28.9
2019-Dec-10 19:00 055 11 gusting 18 28.9
2019-Dec-10 18:54 052 9 gusting 15 28.9
2019-Dec-10 18:48 053 8 gusting 15 28.9
2019-Dec-10 18:42 049 7 gusting 15 28.9
2019-Dec-10 18:36 048 7 gusting 14 28.9
2019-Dec-10 18:30 048 9 gusting 18 28.9
2019-Dec-10 18:24 046 11 gusting 16 28.9
2019-Dec-10 18:18 042 14 gusting 19 28.9
2019-Dec-10 18:12 043 13 gusting 18 28.9
2019-Dec-10 18:06 047 10 gusting 18 28.9
2019-Dec-10 18:00 040 10 gusting 16 28.9
2019-Dec-10 17:54 050 13 gusting 22 28.9
2019-Dec-10 17:48 044 9 gusting 15 28.9
2019-Dec-10 17:42 049 9 gusting 17 28.9
2019-Dec-10 17:36 056 7 gusting 15 28.9
2019-Dec-10 17:30 063 9 gusting 17 28.9
2019-Dec-10 17:24 065 9 gusting 16 28.9
2019-Dec-10 17:18 051 10 gusting 15 28.9
2019-Dec-10 17:12 046 10 gusting 18 28.9
2019-Dec-10 17:06 046 11 gusting 19 28.9
2019-Dec-10 17:00 050 12 gusting 19 28.9
2019-Dec-10 16:54 045 10 gusting 16 28.9
2019-Dec-10 16:48 041 9 gusting 19 28.9
2019-Dec-10 16:42 050 9 gusting 17 28.9
2019-Dec-10 16:36 043 10 gusting 18 28.9
2019-Dec-10 16:30 047 9 gusting 16 28.9
2019-Dec-10 16:24 050 11 gusting 18 28.9
2019-Dec-10 16:18 041 9 gusting 16 28.9
2019-Dec-10 16:12 047 11 gusting 18 28.9
2019-Dec-10 16:06 044 9 gusting 14 28.9
2019-Dec-10 16:00 044 11 gusting 15 28.9
2019-Dec-10 15:54 043 8 gusting 14 28.3
2019-Dec-10 15:48 042 6 gusting 12 28.3
2019-Dec-10 15:42 046 6 gusting 9 28.3
2019-Dec-10 15:36 054 5 gusting 9 28.3
2019-Dec-10 15:30 066 7 gusting 10 28.3
2019-Dec-10 15:24 069 5 gusting 8 28.3
2019-Dec-10 15:18 066 4 gusting 10 28.3
2019-Dec-10 15:12 068 4 gusting 9 28.3
2019-Dec-10 15:06 060 4 gusting 10 28.3
2019-Dec-10 15:00 056 4 gusting 7 28.3
2019-Dec-10 14:54 053 6 gusting 13 28.3
2019-Dec-10 14:48 053 5 gusting 10 28.3
2019-Dec-10 14:42 068 3 gusting 6 28.3
2019-Dec-10 14:36 064 8 gusting 13 28.3
2019-Dec-10 14:30 055 5 gusting 11 28.3
2019-Dec-10 14:24 041 4 gusting 10 28.3
2019-Dec-10 14:18 038 5 gusting 9 28.3
2019-Dec-10 14:12 052 5 gusting 12 28.3
2019-Dec-10 14:06 064 5 gusting 11 28.3
2019-Dec-10 14:00 063 5 gusting 7 28.3
2019-Dec-10 13:54 058 5 gusting 6 28.3
2019-Dec-10 13:48 055 5 gusting 8 28.3
2019-Dec-10 13:42 051 5 gusting 6 28.3
2019-Dec-10 13:36 059 4 gusting 6 28.3
2019-Dec-10 13:30 061 0 gusting 5 28.3
2019-Dec-10 13:24 047 1 gusting 5 28.3
2019-Dec-10 13:18 045 3 gusting 5 28.3
2019-Dec-10 13:12 051 1 gusting 3 28.3
2019-Dec-10 13:06 047 0 gusting 3 28.3
2019-Dec-10 13:00 061 28.3
2019-Dec-10 12:54 065 28.3
2019-Dec-10 12:48 067 28.3
2019-Dec-10 12:42 067 28.3
2019-Dec-10 12:36 067 28.3
2019-Dec-10 12:30 067 28.3
2019-Dec-10 12:24 057 28.3
2019-Dec-10 12:18 057 28.3
2019-Dec-10 12:12 057 27.8
2019-Dec-10 12:06 057 28.3
2019-Dec-10 12:00 056 28.3
2019-Dec-10 11:54 057 28.3
2019-Dec-10 11:48 058 28.3
2019-Dec-10 11:42 059 28.3
2019-Dec-10 11:36 058 28.3
2019-Dec-10 11:30 058 28.3
2019-Dec-10 11:24 057 28.3
2019-Dec-10 11:18 054 28.3
2019-Dec-10 11:12 054 28.3
2019-Dec-10 11:06 054 28.3
2019-Dec-10 11:00 054 27.8
2019-Dec-10 10:54 054 28.3
2019-Dec-10 10:48 053 28.3
2019-Dec-10 10:42 054 28.3
2019-Dec-10 10:36 054 28.3
2019-Dec-10 10:30 054 28.3
2019-Dec-10 10:24 054 28.3
2019-Dec-10 10:18 055 28.3
2019-Dec-10 10:12 054 28.3
2019-Dec-10 10:06 054 28.3
2019-Dec-10 10:00 054 27.8
2019-Dec-10 09:54 054 27.8
2019-Dec-10 09:48 053 28.3
2019-Dec-10 09:42 054 28.3
2019-Dec-10 09:36 053 28.3
2019-Dec-10 09:30 054 28.3
2019-Dec-10 09:24 054 28.3
2019-Dec-10 09:18 054 28.3
2019-Dec-10 09:12 053 27.8
2019-Dec-10 09:06 054 27.8
2019-Dec-10 09:00 053 27.8
2019-Dec-10 08:54 053 27.8
2019-Dec-10 08:48 053 28.3
2019-Dec-10 08:42 054 28.3
2019-Dec-10 08:36 054 28.3
2019-Dec-10 08:30 055 28.3
2019-Dec-10 08:24 055 28.3
2019-Dec-10 08:18 056 28.3
2019-Dec-10 08:12 055 28.3
2019-Dec-10 08:06 055 28.3
2019-Dec-10 08:00 054 28.3
2019-Dec-10 07:54 054 28.3
2019-Dec-10 07:48 055 28.3
2019-Dec-10 07:42 056 28.3
2019-Dec-10 07:36 056 28.3
2019-Dec-10 07:30 058 28.3
2019-Dec-10 07:24 058 27.8
2019-Dec-10 07:18 058 27.8
2019-Dec-10 07:12 058 28.3
2019-Dec-10 07:06 060 28.3
2019-Dec-10 07:00 057 27.8
2019-Dec-10 06:54 057 27.8
2019-Dec-10 06:48 058 27.8
2019-Dec-10 06:42 060 28.3
2019-Dec-10 06:36 060 27.8
2019-Dec-10 06:30 060 28.3
2019-Dec-10 06:24 059 28.3
2019-Dec-10 06:18 060 28.3
2019-Dec-10 06:12 059 28.3
2019-Dec-10 06:06 058 28.3
2019-Dec-10 06:00 056 28.3
2019-Dec-10 05:54 056 28.3
2019-Dec-10 05:48 055 28.3
2019-Dec-10 05:42 056 27.8
2019-Dec-10 05:36 055 28.3
2019-Dec-10 05:30 055 28.3
2019-Dec-10 05:24 056 28.3
2019-Dec-10 05:18 056 28.3
2019-Dec-10 05:12 058 27.8
2019-Dec-10 05:06 057 0 gusting 3 27.8
2019-Dec-10 05:00 057 0 gusting 3 27.8
2019-Dec-10 04:54 059 0 gusting 3 28.3
2019-Dec-10 04:48 058 3 gusting 5 28.3
2019-Dec-10 04:42 058 2 gusting 4 28.3
2019-Dec-10 04:36 055 3 gusting 6 28.3
2019-Dec-10 04:30 056 5 gusting 7 28.3
2019-Dec-10 04:24 056 4 gusting 7 28.3
2019-Dec-10 04:18 057 4 gusting 6 28.3
2019-Dec-10 04:12 061 6 gusting 8 28.3
2019-Dec-10 04:06 061 6 gusting 7 28.3
2019-Dec-10 04:00 054 6 gusting 8 28.3
2019-Dec-10 03:54 053 6 gusting 9 28.3
2019-Dec-10 03:48 055 5 gusting 6 28.3
2019-Dec-10 03:42 048 6 gusting 11 28.3
2019-Dec-10 03:36 047 5 gusting 12 28.3
2019-Dec-10 03:30 050 5 gusting 10 28.3
2019-Dec-10 03:24 041 6 gusting 11 28.3
2019-Dec-10 03:18 045 10 gusting 16 28.3
2019-Dec-10 03:12 057 5 gusting 11 28.3
2019-Dec-10 03:06 068 3 gusting 6 28.3
2019-Dec-10 03:00 067 3 gusting 6 28.3
2019-Dec-10 02:54 069 4 gusting 7 28.3
2019-Dec-10 02:48 068 3 gusting 6 28.3
2019-Dec-10 02:42 069 3 gusting 6 28.3
2019-Dec-10 02:36 069 2 gusting 5 28.3
2019-Dec-10 02:30 069 28.3
2019-Dec-10 02:24 063 2 gusting 6 28.3
2019-Dec-10 02:18 047 1 gusting 4 28.3
2019-Dec-10 02:12 046 28.3
2019-Dec-10 02:06 048 28.3
2019-Dec-10 02:00 047 28.3
2019-Dec-10 01:54 048 28.3
2019-Dec-10 01:48 047 0 gusting 3 28.3
2019-Dec-10 01:36 044 1 gusting 3 28.3
2019-Dec-10 01:30 067 4 gusting 7 28.3
2019-Dec-10 01:24 069 2 gusting 5 28.3
2019-Dec-10 01:18 069 2 gusting 5 28.3
2019-Dec-10 01:12 069 2 gusting 6 28.3
2019-Dec-10 01:06 069 0 gusting 4 28.3
2019-Dec-10 01:00 069 2 gusting 5 28.3
2019-Dec-10 00:54 069 2 gusting 5 28.3
2019-Dec-10 00:48 069 0 gusting 6 28.3
2019-Dec-10 00:42 057 6 gusting 11 28.3
2019-Dec-10 00:36 043 11 gusting 17 28.3
2019-Dec-10 00:30 045 3 gusting 10 28.3
2019-Dec-10 00:24 045 5 gusting 9 28.3
2019-Dec-10 00:18 041 5 gusting 9 28.3
2019-Dec-10 00:12 043 4 gusting 8 28.3
2019-Dec-09 22:18 042 3 gusting 6 28.3
2019-Dec-09 22:12 042 4 gusting 7 28.3
2019-Dec-09 22:06 042 3 gusting 5 28.3
2019-Dec-09 22:00 050 3 gusting 5 28.3
2019-Dec-09 21:54 046 3 gusting 7 28.3
2019-Dec-09 21:48 045 6 gusting 8 28.3
2019-Dec-09 21:42 054 6 gusting 8 28.3
2019-Dec-09 21:36 048 6 gusting 9 28.3
2019-Dec-09 21:30 055 5 gusting 11 28.3
2019-Dec-09 21:24 062 7 gusting 14 28.3
2019-Dec-09 21:18 063 9 gusting 16 28.3
2019-Dec-09 21:12 042 7 gusting 17 28.9
2019-Dec-09 21:06 044 6 gusting 11 28.9
2019-Dec-09 21:00 049 7 gusting 13 28.9
2019-Dec-09 20:54 052 8 gusting 17 28.9
2019-Dec-09 20:48 051 13 gusting 22 28.9
2019-Dec-09 20:42 047 12 gusting 19 28.9
2019-Dec-09 20:36 056 8 gusting 18 28.9
2019-Dec-09 20:30 052 10 gusting 16 28.9
2019-Dec-09 20:24 055 9 gusting 17 28.9
2019-Dec-09 20:18 051 11 gusting 19 28.9
2019-Dec-09 20:12 057 10 gusting 19 28.9
2019-Dec-09 20:06 058 6 gusting 13 28.9
2019-Dec-09 20:00 057 7 gusting 14 28.9
2019-Dec-09 19:54 051 9 gusting 18 28.9
2019-Dec-09 19:48 051 11 gusting 20 28.9
2019-Dec-09 19:42 049 11 gusting 25 28.9
2019-Dec-09 19:36 047 9 gusting 18 28.9
2019-Dec-09 19:30 054 5 gusting 14 28.9
2019-Dec-09 19:24 053 10 gusting 16 28.9
2019-Dec-09 19:18 048 7 gusting 14 28.9
2019-Dec-09 19:12 042 11 gusting 18 28.9
2019-Dec-09 19:06 047 10 gusting 16 28.9
2019-Dec-09 19:00 044 8 gusting 14 28.9
2019-Dec-09 18:54 043 14 gusting 20 28.9
2019-Dec-09 18:48 052 9 gusting 17 28.9
2019-Dec-09 18:42 049 10 gusting 14 28.9
2019-Dec-09 18:36 053 7 gusting 13 28.9
2019-Dec-09 18:30 051 8 gusting 16 28.9
2019-Dec-09 18:24 047 9 gusting 15 28.9
2019-Dec-09 18:18 054 8 gusting 16 28.9
2019-Dec-09 18:12 052 9 gusting 16 28.9
2019-Dec-09 18:06 046 10 gusting 14 28.9
2019-Dec-09 18:00 046 8 gusting 14 28.9
2019-Dec-09 17:54 057 11 gusting 18 28.9
2019-Dec-09 17:48 062 8 gusting 14 28.9
2019-Dec-09 17:42 059 11 gusting 20 28.9
2019-Dec-09 17:36 053 11 gusting 19 28.9
2019-Dec-09 17:30 049 8 gusting 17 28.9
2019-Dec-09 17:24 048 11 gusting 17 28.9
2019-Dec-09 17:18 041 9 gusting 17 28.9
2019-Dec-09 17:12 053 10 gusting 19 28.9
2019-Dec-09 17:06 063 8 gusting 13 28.9
2019-Dec-09 17:00 068 11 gusting 16 28.9
2019-Dec-09 16:54 069 9 gusting 17 28.9
2019-Dec-09 16:48 070 9 gusting 16 28.9
2019-Dec-09 16:42 070 9 gusting 18 28.9
2019-Dec-09 16:36 069 7 gusting 12 28.9
2019-Dec-09 16:30 061 10 gusting 18 28.9
2019-Dec-09 16:24 066 8 gusting 14 28.9
2019-Dec-09 16:18 066 8 gusting 16 28.9
2019-Dec-09 16:12 063 8 gusting 17 28.9
2019-Dec-09 16:06 076 9 gusting 18 28.9
2019-Dec-09 16:00 073 5 gusting 9 28.9